Time;durP1;ratioP1;P1;durP2;ratioP2;P2;SDS_P1;SDS_P2;PMS_P1;PMS_P2;Temp;Humidity;BMP_temperature;BMP_pressure;BME280_temperature;BME280_humidity;BME280_pressure;Samples;Min_cycle;Max_cycle;Signal;HPM_P1;HPM_P2
2022/09/24 00:00:43;;;;;;;38.38;25.02;;;12.90;99.90;;;;;;3059049;19;20028;-90
2022/09/24 00:01:44;;;;;;;40.13;24.65;;;12.70;99.90;;;;;;3061192;19;20014;-91
2022/09/24 00:02:48;;;;;;;37.35;24.73;;;12.70;99.90;;;;;;3059237;19;20011;-91
2022/09/24 00:03:53;;;;;;;37.00;24.42;;;12.70;99.90;;;;;;3060251;19;20019;-89
2022/09/24 00:04:56;;;;;;;38.15;24.85;;;13.50;99.90;;;;;;3060796;19;20018;-90
2022/09/24 00:06:01;;;;;;;38.28;24.05;;;12.10;99.90;;;;;;3060581;19;20018;-89
2022/09/24 00:07:04;;;;;;;39.15;25.17;;;12.90;99.90;;;;;;3059472;19;20448;-90
2022/09/24 00:08:06;;;;;;;42.13;26.80;;;12.50;99.90;;;;;;3059581;19;20019;-90
2022/09/24 00:09:10;;;;;;;;;;;12.70;99.90;;;;;;3061887;19;20114;-92
2022/09/24 00:10:11;;;;;;;40.50;24.33;;;12.60;99.90;;;;;;3060954;19;20356;-91
2022/09/24 00:11:20;;;;;;;39.45;24.48;;;13.60;99.90;;;;;;3062782;19;20013;-92
2022/09/24 00:12:21;;;;;;;38.55;25.55;;;12.70;99.90;;;;;;3063113;19;20014;-91
2022/09/24 00:13:25;;;;;;;41.53;26.20;;;12.80;99.90;;;;;;3063587;19;20123;-90
2022/09/24 00:14:27;;;;;;;43.83;26.48;;;12.80;99.90;;;;;;3061114;19;20010;-92
2022/09/24 00:15:31;;;;;;;38.92;25.73;;;12.70;99.90;;;;;;3060285;19;20348;-91
2022/09/24 00:16:35;;;;;;;42.95;26.50;;;12.70;99.90;;;;;;3059074;19;20044;-89
2022/09/24 00:17:37;;;;;;;42.58;26.35;;;13.10;99.90;;;;;;3059862;19;20353;-91
2022/09/24 00:18:41;;;;;;;43.60;27.42;;;12.60;99.90;;;;;;3059863;19;20018;-91
2022/09/24 00:19:43;;;;;;;38.92;26.35;;;12.70;99.90;;;;;;3059659;19;20023;-91
2022/09/24 00:20:47;;;;;;;42.75;26.17;;;12.40;99.90;;;;;;3060455;19;20013;-92
2022/09/24 00:21:51;;;;;;;41.17;26.73;;;13.70;99.90;;;;;;3059641;19;20390;-92
2022/09/24 00:22:52;;;;;;;40.63;26.33;;;12.60;99.90;;;;;;3059760;19;20014;-90
2022/09/24 00:23:58;;;;;;;39.95;26.30;;;12.70;99.90;;;;;;3061160;19;20043;-90
2022/09/24 00:27:35;;;;;;;39.58;26.13;;;12.70;99.90;;;;;;3062654;19;20015;-91
2022/09/24 00:28:39;;;;;;;42.90;27.45;;;12.60;99.90;;;;;;3066943;19;20021;-89
2022/09/24 00:29:41;;;;;;;46.95;27.73;;;12.70;99.90;;;;;;3071753;19;20014;-87
2022/09/24 00:30:46;;;;;;;42.63;27.35;;;12.60;99.90;;;;;;3070134;19;20007;-91
2022/09/24 00:31:48;;;;;;;42.00;26.95;;;12.90;99.90;;;;;;3067386;19;20010;-89
2022/09/24 00:32:52;;;;;;;41.05;27.92;;;12.50;99.90;;;;;;3060759;19;20002;-92
2022/09/24 00:33:53;;;;;;;43.17;27.77;;;12.70;99.90;;;;;;3060742;19;20010;-91
2022/09/24 00:34:57;;;;;;;44.97;27.92;;;12.60;99.90;;;;;;3068366;19;20002;-91
2022/09/24 00:36:01;;;;;;;48.53;28.27;;;12.70;99.90;;;;;;3071382;19;19995;-91
2022/09/24 00:37:04;;;;;;;41.90;27.65;;;12.70;99.90;;;;;;3072061;19;20015;-92
2022/09/24 00:38:06;;;;;;;44.10;27.58;;;12.80;99.90;;;;;;3062304;19;20031;-90
2022/09/24 00:39:10;;;;;;;43.15;27.45;;;12.60;99.90;;;;;;3060202;19;19999;-90
2022/09/24 00:40:14;;;;;;;45.30;27.65;;;12.70;99.90;;;;;;3059940;19;20011;-91
2022/09/24 00:41:22;;;;;;;44.70;28.30;;;12.70;99.90;;;;;;3060197;19;20459;-91
2022/09/24 00:42:24;;;;;;;43.58;29.08;;;12.60;99.90;;;;;;3059943;19;20002;-90
2022/09/24 00:43:28;;;;;;;;;;;12.60;99.90;;;;;;3060374;19;20422;-92
2022/09/24 00:44:53;;;;;;;45.50;27.92;;;12.70;99.90;;;;;;3061346;19;19926;-92
2022/09/24 00:45:59;;;;;;;43.35;27.80;;;12.60;99.90;;;;;;3059733;19;20015;-91
2022/09/24 00:47:01;;;;;;;43.42;28.05;;;12.60;99.90;;;;;;3060031;19;19999;-92
2022/09/24 00:48:05;;;;;;;44.63;27.92;;;12.80;99.90;;;;;;3059792;19;20010;-91
2022/09/24 00:49:12;;;;;;;45.70;28.83;;;12.80;99.90;;;;;;3065321;19;20011;-90
2022/09/24 00:50:23;;;;;;;41.28;27.60;;;12.60;99.90;;;;;;3062750;19;20007;-90
2022/09/24 00:51:27;;;;;;;45.53;28.75;;;12.80;99.90;;;;;;3063027;19;20046;-91
2022/09/24 00:52:31;;;;;;;50.33;28.95;;;12.70;99.90;;;;;;3067102;19;20014;-89
2022/09/24 00:53:36;;;;;;;48.28;29.83;;;12.70;99.90;;;;;;3068144;19;20030;-89
2022/09/24 00:54:37;;;;;;;46.22;28.27;;;12.70;99.90;;;;;;3066249;19;20014;-89
2022/09/24 00:55:44;;;;;;;47.58;28.92;;;12.70;99.90;;;;;;3061902;19;20014;-91
2022/09/24 00:56:49;;;;;;;48.10;28.30;;;12.80;99.90;;;;;;3061750;19;20002;-91
2022/09/24 00:57:57;;;;;;;44.33;29.05;;;12.80;99.90;;;;;;3059179;19;20010;-91
2022/09/24 00:59:01;;;;;;;42.55;28.20;;;12.90;99.90;;;;;;3060708;19;20025;-92
2022/09/24 01:00:07;;;;;;;43.03;28.00;;;13.10;99.90;;;;;;3062071;19;20050;-92
2022/09/24 01:01:08;;;;;;;44.60;28.77;;;12.70;99.90;;;;;;3063413;19;20368;-91
2022/09/24 01:02:13;;;;;;;45.83;28.77;;;12.60;99.90;;;;;;3062823;19;20400;-90
2022/09/24 01:03:21;;;;;;;45.72;28.42;;;12.80;99.90;;;;;;3062365;19;20081;-92
2022/09/24 01:04:27;;;;;;;47.05;29.20;;;12.60;99.90;;;;;;3062791;19;20020;-91
2022/09/24 01:05:28;;;;;;;43.10;28.35;;;12.70;99.90;;;;;;3063005;19;20088;-91
2022/09/24 01:06:32;;;;;;;44.92;28.67;;;12.60;99.90;;;;;;3062052;19;20014;-92
2022/09/24 01:07:34;;;;;;;45.05;28.60;;;13.40;99.90;;;;;;3062341;19;20015;-91
2022/09/24 01:08:38;;;;;;;48.08;30.50;;;12.80;99.90;;;;;;3062208;19;20046;-92
2022/09/24 01:09:40;;;;;;;44.88;29.23;;;12.70;99.90;;;;;;3062752;19;20420;-93
2022/09/24 01:11:06;;;;;;;45.42;29.23;;;12.60;99.90;;;;;;3062197;19;20347;-91
2022/09/24 01:12:17;;;;;;;47.75;30.02;;;12.80;99.90;;;;;;3062838;19;20010;-91
2022/09/24 01:13:39;;;;;;;50.20;30.20;;;12.80;99.90;;;;;;3061978;19;20057;-91
2022/09/24 01:14:59;;;;;;;47.50;28.98;;;12.80;99.90;;;;;;3062710;19;20062;-91
2022/09/24 01:16:05;;;;;;;50.60;30.20;;;12.70;99.90;;;;;;3061399;19;20006;-92
2022/09/24 01:17:21;;;;;;;51.72;30.90;;;12.60;99.90;;;;;;3062937;19;20579;-91
2022/09/24 01:18:30;;;;;;;46.80;29.77;;;12.60;99.90;;;;;;3063322;19;20074;-91
2022/09/24 01:20:00;;;;;;;47.78;30.02;;;12.80;99.90;;;;;;3063530;19;20039;-91
2022/09/24 01:21:39;;;;;;;49.50;29.80;;;12.70;99.90;;;;;;3067387;19;20027;-91
2022/09/24 01:22:53;;;;;;;49.83;30.38;;;12.90;99.90;;;;;;3063964;19;22177;-92
2022/09/24 01:24:27;;;;;;;46.47;29.80;;;12.80;99.90;;;;;;3062761;19;20009;-91
2022/09/24 01:25:39;;;;;;;49.55;30.40;;;12.80;99.90;;;;;;3066596;19;20011;-91
2022/09/24 01:27:04;;;;;;;47.50;31.42;;;12.70;99.90;;;;;;3066406;19;20014;-92
2022/09/24 01:28:26;;;;;;;46.50;30.08;;;12.60;99.90;;;;;;3064873;19;19999;-92
2022/09/24 01:29:52;;;;;;;52.08;31.63;;;12.70;99.90;;;;;;3062451;19;20025;-92
2022/09/24 01:30:58;;;;;;;51.83;32.25;;;12.80;99.90;;;;;;3062597;19;20002;-92
2022/09/24 01:32:08;;;;;;;52.20;31.42;;;12.80;99.90;;;;;;3062462;19;20014;-92
2022/09/24 01:33:15;;;;;;;53.45;31.50;;;12.80;99.90;;;;;;3062232;19;20014;-91
2022/09/24 01:34:25;;;;;;;55.22;32.53;;;12.90;99.90;;;;;;3062559;19;20019;-92
2022/09/24 01:35:31;;;;;;;55.72;32.58;;;12.80;99.90;;;;;;3063507;19;20007;-91
2022/09/24 01:36:37;;;;;;;52.58;32.28;;;12.70;99.90;;;;;;3062095;19;20077;-91
2022/09/24 01:37:43;;;;;;;56.97;33.67;;;12.80;99.90;;;;;;3061683;19;20006;-92
2022/09/24 01:38:51;;;;;;;51.65;32.75;;;12.80;99.90;;;;;;3061923;19;20042;-90
2022/09/24 01:39:55;;;;;;;59.10;34.85;;;12.60;99.90;;;;;;3061607;19;20011;-91
2022/09/24 01:41:04;;;;;;;56.55;33.53;;;12.60;99.90;;;;;;3061916;19;20060;-93
2022/09/24 01:42:08;;;;;;;55.83;33.17;;;12.70;99.90;;;;;;3062138;19;20564;-91
2022/09/24 01:43:14;;;;;;;54.05;34.67;;;12.80;99.90;;;;;;3061842;19;20347;-92
2022/09/24 01:44:17;;;;;;;55.08;34.65;;;12.90;99.90;;;;;;3061451;19;20018;-92
2022/09/24 01:45:24;;;;;;;56.17;33.10;;;12.90;99.90;;;;;;3062280;19;20039;-92
2022/09/24 01:46:26;;;;;;;57.00;33.35;;;13.90;99.90;;;;;;3061103;19;20373;-92
2022/09/24 01:47:33;;;;;;;58.63;35.80;;;12.80;99.90;;;;;;3062141;19;20018;-92
2022/09/24 01:48:36;;;;;;;53.65;33.63;;;12.70;99.90;;;;;;3060744;19;20344;-92
2022/09/24 01:49:39;;;;;;;56.00;34.00;;;12.70;99.90;;;;;;3060982;19;20026;-92
2022/09/24 01:50:48;;;;;;;52.95;34.72;;;12.90;99.90;;;;;;3062114;19;20011;-93
2022/09/24 01:51:57;;;;;;;64.55;36.60;;;12.80;99.90;;;;;;3062907;19;20050;-91
2022/09/24 01:53:06;;;;;;;61.10;34.65;;;12.80;99.90;;;;;;3061723;19;20092;-91
2022/09/24 01:54:17;;;;;;;57.33;34.10;;;12.70;99.90;;;;;;3065592;19;20340;-91
2022/09/24 01:55:27;;;;;;;57.33;35.17;;;12.90;99.90;;;;;;3062648;19;20020;-90
2022/09/24 01:56:33;;;;;;;54.60;34.28;;;12.50;99.90;;;;;;3061333;19;20010;-91
2022/09/24 01:57:41;;;;;;;56.17;33.65;;;12.80;99.90;;;;;;3068011;19;20030;-90
2022/09/24 01:58:48;;;;;;;61.78;34.75;;;12.70;99.90;;;;;;3068637;19;20007;-91
2022/09/24 01:59:58;;;;;;;54.08;34.05;;;12.80;99.90;;;;;;3063323;19;20007;-91
2022/09/24 02:01:06;;;;;;;58.97;35.85;;;12.80;99.90;;;;;;3062259;19;20014;-91
2022/09/24 02:02:16;;;;;;;55.22;34.67;;;12.80;99.90;;;;;;3062177;19;20034;-91
2022/09/24 02:03:25;;;;;;;58.45;35.10;;;12.80;99.90;;;;;;3060510;19;20033;-90
2022/09/24 02:04:31;;;;;;;61.58;36.50;;;12.90;99.90;;;;;;3060922;19;20006;-91
2022/09/24 02:05:37;;;;;;;60.67;35.25;;;12.80;99.90;;;;;;3061149;19;20367;-90
2022/09/24 02:06:46;;;;;;;58.72;34.40;;;12.70;99.90;;;;;;3061431;19;20524;-91
2022/09/24 02:07:54;;;;;;;62.75;36.50;;;12.70;99.90;;;;;;3061209;19;20364;-91
2022/09/24 02:08:59;;;;;;;59.40;35.15;;;12.80;99.90;;;;;;3061490;19;20031;-92
2022/09/24 02:10:01;;;;;;;56.22;34.97;;;12.80;99.90;;;;;;3061008;19;20007;-91
2022/09/24 02:11:08;;;;;;;57.85;35.65;;;12.80;99.90;;;;;;3061379;19;20019;-92
2022/09/24 02:12:13;;;;;;;68.72;36.80;;;12.80;99.90;;;;;;3061519;19;20518;-91
2022/09/24 02:13:23;;;;;;;60.08;35.28;;;12.70;99.90;;;;;;3061353;19;20085;-90
2022/09/24 02:14:25;;;;;;;61.08;36.72;;;12.80;99.90;;;;;;3061643;19;20446;-91
2022/09/24 02:15:31;;;;;;;60.30;36.15;;;12.80;99.90;;;;;;3061134;19;20024;-93
2022/09/24 02:16:39;;;;;;;58.45;35.47;;;12.70;99.90;;;;;;3060863;19;20376;-93
2022/09/24 02:17:47;;;;;;;62.28;37.30;;;13.00;99.90;;;;;;3061765;19;20506;-92
2022/09/24 02:18:53;;;;;;;66.07;38.20;;;12.60;99.90;;;;;;3061264;19;20013;-92
2022/09/24 02:19:59;;;;;;;61.40;35.70;;;12.80;99.90;;;;;;3062998;19;20039;-91
2022/09/24 02:21:05;;;;;;;59.63;36.75;;;12.70;99.90;;;;;;3060570;19;20015;-90
2022/09/24 02:22:11;;;;;;;59.97;36.25;;;12.90;99.90;;;;;;3060335;19;20011;-92
2022/09/24 02:23:16;;;;;;;64.05;36.80;;;12.70;99.90;;;;;;3062837;19;20479;-92
2022/09/24 02:24:23;;;;;;;65.35;37.42;;;12.80;99.90;;;;;;3060818;19;20014;-92
2022/09/24 02:25:31;;;;;;;66.07;39.22;;;12.80;99.90;;;;;;3062743;19;20007;-88
2022/09/24 02:26:35;;;;;;;60.65;37.22;;;12.40;99.90;;;;;;3066836;19;20010;-90
2022/09/24 02:27:37;;;;;;;65.22;37.85;;;12.70;99.90;;;;;;3063926;19;20025;-90
2022/09/24 02:28:41;;;;;;;68.22;36.97;;;12.90;99.90;;;;;;3060748;19;20015;-91
2022/09/24 02:29:43;;;;;;;65.75;36.88;;;12.70;99.90;;;;;;3059933;19;20010;-91
2022/09/24 02:30:51;;;;;;;62.83;38.75;;;12.90;99.90;;;;;;3060627;19;20025;-90
2022/09/24 02:31:57;;;;;;;66.90;37.83;;;12.80;99.90;;;;;;3060529;19;20002;-91
2022/09/24 02:34:19;;;;;;;62.20;37.13;;;12.80;99.90;;;;;;3062292;19;20029;-91
2022/09/24 02:34:28;;;;;;;63.55;38.55;;;12.90;99.90;;;;;;3058929;19;20018;-91
2022/09/24 02:35:30;;;;;;;62.13;37.45;;;12.80;99.90;;;;;;3060823;19;20058;-92
2022/09/24 02:36:34;;;;;;;69.07;38.58;;;12.80;99.90;;;;;;3060092;19;20558;-91
2022/09/24 02:37:38;;;;;;;63.85;38.38;;;12.80;99.90;;;;;;3061607;19;20025;-91
2022/09/24 02:38:42;;;;;;;65.50;38.67;;;13.00;99.90;;;;;;3060007;19;20058;-91
2022/09/24 02:39:43;;;;;;;67.65;39.17;;;12.70;99.90;;;;;;3063266;19;20014;-92
2022/09/24 02:40:47;;;;;;;65.43;38.13;;;12.80;99.90;;;;;;3062428;19;20011;-91
2022/09/24 02:41:50;;;;;;;64.70;38.85;;;12.90;99.90;;;;;;3062173;19;20018;-91
2022/09/24 02:42:54;;;;;;;61.78;38.13;;;13.10;99.90;;;;;;3062251;19;20586;-91
2022/09/24 02:43:55;;;;;;;64.10;38.35;;;12.70;99.90;;;;;;3062429;19;20010;-92
2022/09/24 02:45:01;;;;;;;64.50;39.33;;;12.90;99.90;;;;;;3063132;19;20006;-91
2022/09/24 02:46:02;;;;;;;66.78;39.30;;;12.70;99.90;;;;;;3061234;19;20324;-91
2022/09/24 02:47:09;;;;;;;67.63;38.05;;;12.90;99.90;;;;;;3061200;19;20086;-91
2022/09/24 02:48:10;;;;;;;63.40;39.03;;;13.10;99.90;;;;;;3061287;19;20002;-91
2022/09/24 02:49:15;;;;;;;65.70;37.85;;;12.90;99.90;;;;;;3060567;19;20018;-92
2022/09/24 02:50:16;;;;;;;63.10;39.20;;;12.90;99.90;;;;;;3060535;19;20022;-91
2022/09/24 02:51:20;;;;;;;64.65;39.28;;;12.80;99.90;;;;;;3060815;19;20395;-91
2022/09/24 02:52:22;;;;;;;66.97;39.17;;;12.90;99.90;;;;;;3060689;19;20359;-92
2022/09/24 02:53:26;;;;;;;65.15;38.22;;;12.90;99.90;;;;;;3060440;19;20013;-92
2022/09/24 02:54:27;;;;;;;66.18;39.03;;;13.10;99.90;;;;;;3058990;19;19998;-92
2022/09/24 02:55:31;;;;;;;70.15;38.75;;;12.80;99.90;;;;;;3060067;19;20011;-93
2022/09/24 02:56:36;;;;;;;61.55;38.97;;;13.80;99.90;;;;;;3061900;19;20017;-92
2022/09/24 02:57:37;;;;;;;67.65;39.45;;;12.90;99.90;;;;;;3061601;19;20011;-92
2022/09/24 02:58:42;;;;;;;65.20;39.17;;;12.80;99.90;;;;;;3060506;19;20010;-89
2022/09/24 02:59:43;;;;;;;65.00;39.10;;;12.80;99.90;;;;;;3060845;19;20006;-92
2022/09/24 03:00:47;;;;;;;65.47;40.38;;;12.90;99.90;;;;;;3060802;19;20005;-91
2022/09/24 03:01:49;;;;;;;68.90;38.65;;;13.00;99.90;;;;;;3070454;19;20006;-92
2022/09/24 03:02:55;;;;;;;67.10;39.90;;;12.90;99.90;;;;;;3070195;19;20021;-87
2022/09/24 03:03:57;;;;;;;71.72;40.53;;;12.60;99.90;;;;;;3069069;19;20014;-91
2022/09/24 03:05:00;;;;;;;68.47;39.47;;;12.90;99.90;;;;;;3068410;19;20007;-92
2022/09/24 03:06:02;;;;;;;67.30;39.20;;;12.90;99.90;;;;;;3070813;19;20011;-91
2022/09/24 03:07:06;;;;;;;65.75;39.42;;;12.90;99.90;;;;;;3070113;19;20010;-90
2022/09/24 03:08:07;;;;;;;66.47;38.85;;;12.80;99.90;;;;;;3071039;19;20038;-92
2022/09/24 03:09:13;;;;;;;67.90;39.53;;;13.10;99.90;;;;;;3064601;19;20002;-92
2022/09/24 03:10:15;;;;;;;67.05;39.65;;;12.80;99.90;;;;;;3062459;19;20015;-93
2022/09/24 03:11:18;;;;;;;74.78;40.88;;;13.00;99.90;;;;;;3063771;19;20018;-91
2022/09/24 03:12:23;;;;;;;75.13;41.15;;;13.20;99.90;;;;;;3072521;19;20018;-90
2022/09/24 03:13:25;;;;;;;68.80;39.75;;;13.00;99.90;;;;;;3072682;19;20018;-90
2022/09/24 03:14:29;;;;;;;66.07;40.63;;;13.20;99.90;;;;;;3067798;19;20032;-91
2022/09/24 03:15:30;;;;;;;70.50;40.03;;;13.00;99.90;;;;;;3062125;19;20015;-91
2022/09/24 03:16:35;;;;;;;64.15;39.30;;;13.40;99.90;;;;;;3060801;19;20448;-87
2022/09/24 03:17:36;;;;;;;71.20;39.05;;;13.10;99.90;;;;;;3060353;19;20019;-92
2022/09/24 03:18:42;;;;;;;69.63;39.70;;;14.30;99.90;;;;;;3060777;19;20010;-90
2022/09/24 03:19:43;;;;;;;69.30;39.80;;;12.90;99.90;;;;;;3060033;19;20026;-91
2022/09/24 03:20:57;;;;;;;69.47;40.17;;;13.00;99.90;;;;;;3060222;19;20027;-92
2022/09/24 03:21:58;;;;;;;69.07;39.20;;;13.00;99.90;;;;;;3058799;19;20023;-92
2022/09/24 03:23:02;;;;;;;68.57;39.95;;;12.90;99.90;;;;;;3059849;19;20007;-91
2022/09/24 03:24:03;;;;;;;63.10;38.08;;;13.00;99.90;;;;;;3060199;19;20033;-91
2022/09/24 03:25:08;;;;;;;66.65;38.83;;;13.00;99.90;;;;;;3060091;19;20078;-91
2022/09/24 03:26:09;;;;;;;68.53;39.92;;;12.90;99.90;;;;;;3060951;19;20015;-92
2022/09/24 03:27:13;;;;;;;66.60;38.72;;;13.00;99.90;;;;;;3060134;19;20396;-90
2022/09/24 03:28:15;;;;;;;65.70;38.03;;;13.00;99.90;;;;;;3062298;19;20015;-91
2022/09/24 03:30:58;;;;;;;65.32;38.78;;;12.80;99.90;;;;;;3058576;19;20622;-91
2022/09/24 03:31:58;;;;;;;66.20;37.40;;;13.10;99.90;;;;;;3064885;19;20011;-91
2022/09/24 03:32:59;;;;;;;71.03;39.17;;;13.00;99.90;;;;;;3063892;19;20017;-92
2022/09/24 03:34:06;;;;;;;69.13;39.92;;;13.10;99.90;;;;;;3063745;19;20022;-92
2022/09/24 03:35:09;;;;;;;71.70;39.95;;;13.00;99.90;;;;;;3057217;19;20019;-93
2022/09/24 03:36:15;;;;;;;68.43;41.08;;;12.80;99.90;;;;;;3058694;19;20021;-92
2022/09/24 03:37:16;;;;;;;65.00;38.53;;;12.80;99.90;;;;;;3068190;19;20010;-88
2022/09/24 03:38:20;;;;;;;64.50;38.53;;;12.50;99.90;;;;;;3069073;19;20006;-90
2022/09/24 03:39:21;;;;;;;66.45;38.75;;;12.90;99.90;;;;;;3067627;19;20014;-92
2022/09/24 03:40:25;;;;;;;65.22;38.45;;;13.30;99.90;;;;;;3063370;19;20014;-92
2022/09/24 03:41:30;;;;;;;69.07;40.35;;;12.90;99.90;;;;;;3060042;19;20003;-92
2022/09/24 03:42:32;;;;;;;68.90;39.42;;;12.90;99.90;;;;;;3060074;19;20010;-91
2022/09/24 03:43:36;;;;;;;59.95;37.95;;;12.80;99.90;;;;;;3059916;19;19999;-91
2022/09/24 03:44:38;;;;;;;71.75;39.65;;;12.90;99.90;;;;;;3059692;19;19999;-91
2022/09/24 03:45:42;;;;;;;73.45;41.08;;;12.80;99.90;;;;;;3059879;19;20418;-91
2022/09/24 03:46:43;;;;;;;68.47;38.47;;;12.90;99.90;;;;;;3059765;19;20015;-91
2022/09/24 03:47:47;;;;;;;70.88;41.15;;;12.90;99.90;;;;;;3061664;19;20028;-90
2022/09/24 03:48:48;;;;;;;74.53;39.58;;;12.80;99.90;;;;;;3060139;19;19994;-90
2022/09/24 03:49:55;;;;;;;;;;;12.90;99.90;;;;;;3059792;19;20031;-90
2022/09/24 03:50:56;;;;;;;67.78;37.97;;;13.00;99.90;;;;;;3060562;19;19931;-91
2022/09/24 03:52:00;;;;;;;70.53;40.58;;;12.80;99.90;;;;;;3059807;19;20364;-90
2022/09/24 03:53:02;;;;;;;67.93;39.90;;;12.70;99.90;;;;;;3059591;19;20034;-90
2022/09/24 03:54:06;;;;;;;67.47;39.83;;;12.80;99.90;;;;;;3059505;19;20006;-89
2022/09/24 03:55:08;;;;;;;72.70;39.90;;;12.80;99.90;;;;;;3059088;19;20006;-89
2022/09/24 03:56:13;;;;;;;72.43;40.00;;;12.80;99.90;;;;;;3059171;19;20014;-88
2022/09/24 03:57:14;;;;;;;73.88;41.45;;;12.70;99.90;;;;;;3057414;19;20030;-87
2022/09/24 03:58:18;;;;;;;69.22;39.35;;;12.80;99.90;;;;;;3060552;19;20019;-87
2022/09/24 03:59:20;;;;;;;72.93;41.25;;;12.80;99.90;;;;;;3060790;19;20010;-88
2022/09/24 04:00:24;;;;;;;71.70;40.42;;;13.40;99.90;;;;;;3059885;19;20014;-87
2022/09/24 04:01:26;;;;;;;71.40;40.55;;;12.70;99.90;;;;;;3058317;19;20496;-87
2022/09/24 04:02:30;;;;;;;70.35;40.08;;;12.80;99.90;;;;;;3058042;19;20019;-87
2022/09/24 04:03:32;;;;;;;72.32;40.13;;;12.70;99.90;;;;;;3060969;19;20010;-88
2022/09/24 04:04:36;;;;;;;75.22;40.47;;;12.70;99.90;;;;;;3059129;19;20027;-88
2022/09/24 04:05:41;;;;;;;74.60;40.42;;;12.80;99.90;;;;;;3060090;19;20005;-88
2022/09/24 04:06:44;;;;;;;73.38;40.33;;;12.70;99.90;;;;;;3063288;19;20329;-88
2022/09/24 04:07:46;;;;;;;71.85;40.38;;;12.80;99.90;;;;;;3061985;19;20039;-88
2022/09/24 04:08:50;;;;;;;71.32;40.05;;;13.10;99.90;;;;;;3062027;19;20374;-89
2022/09/24 04:09:51;;;;;;;65.25;38.75;;;13.50;99.90;;;;;;3056810;19;20475;-89
2022/09/24 04:10:55;;;;;;;75.28;41.78;;;12.80;99.90;;;;;;3059123;19;20028;-89
2022/09/24 04:11:57;;;;;;;76.47;39.78;;;12.70;99.90;;;;;;3061430;19;20368;-89
2022/09/24 04:13:01;;;;;;;67.03;38.58;;;12.70;99.90;;;;;;3060931;19;20445;-88
2022/09/24 04:14:03;;;;;;;70.65;40.90;;;12.70;99.90;;;;;;3060276;19;20011;-89
2022/09/24 04:15:08;;;;;;;72.47;40.85;;;12.60;99.90;;;;;;3063266;19;20340;-89
2022/09/24 04:16:09;;;;;;;71.95;39.40;;;12.60;99.90;;;;;;3061810;19;19999;-87
2022/09/24 04:17:13;;;;;;;79.20;40.55;;;12.50;99.90;;;;;;3063408;19;20035;-89
2022/09/24 04:18:20;;;;;;;73.50;41.55;;;12.70;99.90;;;;;;3063854;19;20014;-90
2022/09/24 04:19:22;;;;;;;76.75;41.67;;;12.80;99.90;;;;;;3060073;19;20006;-90
2022/09/24 04:20:28;;;;;;;79.25;40.60;;;12.70;99.90;;;;;;3061695;19;20030;-89
2022/09/24 04:21:32;;;;;;;74.85;39.83;;;12.60;99.90;;;;;;3060672;19;20021;-89
2022/09/24 04:22:38;;;;;;;76.43;40.75;;;12.60;99.90;;;;;;3059783;19;20011;-89
2022/09/24 04:23:41;;;;;;;78.78;41.05;;;13.80;99.90;;;;;;3061140;19;20026;-89
2022/09/24 04:24:44;;;;;;;69.15;39.08;;;13.00;99.90;;;;;;3059695;19;20014;-89
2022/09/24 04:25:48;;;;;;;70.80;40.05;;;12.70;99.90;;;;;;3061477;19;20018;-90
2022/09/24 04:26:49;;;;;;;70.00;39.85;;;13.20;99.90;;;;;;3061327;19;20033;-90
2022/09/24 04:27:56;;;;;;;72.50;39.88;;;12.60;99.90;;;;;;3062518;19;20539;-90
2022/09/24 04:28:58;;;;;;;69.07;39.40;;;12.70;99.90;;;;;;3060434;19;20014;-90
2022/09/24 04:30:01;;;;;;;74.50;41.55;;;12.60;99.90;;;;;;3060478;19;20015;-90
2022/09/24 04:31:03;;;;;;;71.20;39.58;;;12.70;99.90;;;;;;3060392;19;20459;-90
2022/09/24 04:32:07;;;;;;;70.00;38.75;;;12.90;99.90;;;;;;3060194;19;20014;-90
2022/09/24 04:33:08;;;;;;;75.97;40.00;;;12.70;99.90;;;;;;3060294;19;20018;-91
2022/09/24 04:34:13;;;;;;;76.10;40.58;;;12.90;99.90;;;;;;3061484;19;20039;-91
2022/09/24 04:35:14;;;;;;;71.53;39.40;;;12.70;99.90;;;;;;3065398;19;20051;-92
2022/09/24 04:36:19;;;;;;;71.03;39.20;;;12.80;99.90;;;;;;3065173;19;20029;-91
2022/09/24 04:37:22;;;;;;;75.68;40.25;;;12.80;99.90;;;;;;3064410;19;20035;-91
2022/09/24 04:38:26;;;;;;;76.57;40.97;;;12.80;99.90;;;;;;3066002;19;20014;-91
2022/09/24 04:39:28;;;;;;;73.78;40.53;;;12.90;99.90;;;;;;3063960;19;20007;-91
2022/09/24 04:40:32;;;;;;;74.50;41.38;;;12.50;99.90;;;;;;3065000;19;20043;-91
2022/09/24 04:41:34;;;;;;;75.60;41.75;;;12.70;99.90;;;;;;3063499;19;20003;-91
2022/09/24 04:42:39;;;;;;;69.13;40.25;;;12.60;99.90;;;;;;3067829;19;20017;-91
2022/09/24 04:43:45;;;;;;;80.07;40.80;;;12.60;99.90;;;;;;3069450;19;20646;-92
2022/09/24 04:44:46;;;;;;;75.93;40.95;;;12.60;99.90;;;;;;3069076;19;20018;-90
2022/09/24 04:45:50;;;;;;;73.55;41.03;;;12.90;99.90;;;;;;3067634;19;20006;-89
2022/09/24 04:46:53;;;;;;;71.95;39.45;;;12.70;99.90;;;;;;3064600;19;20058;-91
2022/09/24 04:47:57;;;;;;;78.90;40.60;;;13.00;99.90;;;;;;3062850;19;20006;-91
2022/09/24 04:48:58;;;;;;;68.00;38.97;;;12.60;99.90;;;;;;3063591;19;20093;-91
2022/09/24 04:50:02;;;;;;;75.05;41.33;;;12.80;99.90;;;;;;3062651;19;20405;-90
2022/09/24 04:51:05;;;;;;;76.95;41.40;;;12.80;99.90;;;;;;3062852;19;20082;-90
2022/09/24 04:52:09;;;;;;;74.38;40.92;;;12.50;99.90;;;;;;3062980;19;20018;-90
2022/09/24 04:53:13;;;;;;;72.32;39.85;;;12.70;99.90;;;;;;3062438;19;20019;-89
2022/09/24 04:54:17;;;;;;;74.40;41.75;;;12.70;99.90;;;;;;3063652;19;20502;-89
2022/09/24 04:55:19;;;;;;;71.75;40.25;;;12.70;99.90;;;;;;3063263;19;20014;-90
2022/09/24 04:56:23;;;;;;;;;;;12.80;99.90;;;;;;3063061;19;20002;-90
2022/09/24 04:57:24;;;;;;;66.68;37.78;;;12.70;99.90;;;;;;3064641;19;19911;-90
2022/09/24 04:58:28;;;;;;;74.18;40.88;;;12.60;99.90;;;;;;3067612;19;20019;-91
2022/09/24 04:59:29;;;;;;;71.85;40.08;;;12.60;99.90;;;;;;3066223;19;20740;-91
2022/09/24 05:00:33;;;;;;;72.80;40.67;;;12.60;99.90;;;;;;3064228;19;20025;-90
2022/09/24 05:01:35;;;;;;;75.82;40.60;;;12.70;99.90;;;;;;3062917;19;20010;-90
2022/09/24 05:02:40;;;;;;;76.18;40.95;;;12.80;99.90;;;;;;3062189;19;20006;-90
2022/09/24 05:03:43;;;;;;;72.88;40.10;;;13.00;99.90;;;;;;3062734;19;20029;-90
2022/09/24 05:04:45;;;;;;;70.85;40.00;;;12.70;99.90;;;;;;3062292;19;20018;-90
2022/09/24 05:05:49;;;;;;;69.47;38.97;;;12.80;99.90;;;;;;3062770;19;20009;-90
2022/09/24 05:06:50;;;;;;;70.22;39.47;;;12.70;99.90;;;;;;3062889;19;20514;-90
2022/09/24 05:07:55;;;;;;;74.63;41.83;;;12.70;99.90;;;;;;3062787;19;20008;-90
2022/09/24 05:08:59;;;;;;;74.93;41.40;;;12.60;99.90;;;;;;3062872;19;20046;-90
2022/09/24 05:10:03;;;;;;;70.28;39.65;;;12.60;99.90;;;;;;3064794;19;20010;-89
2022/09/24 05:11:05;;;;;;;74.65;39.95;;;12.60;99.90;;;;;;3066102;19;20007;-89
2022/09/24 05:12:09;;;;;;;73.22;38.90;;;12.60;99.90;;;;;;3063176;19;20474;-88
2022/09/24 05:13:10;;;;;;;76.70;40.90;;;12.80;99.90;;;;;;3061414;19;20462;-89
2022/09/24 05:14:14;;;;;;;80.38;42.30;;;12.90;99.90;;;;;;3060947;19;20010;-88
2022/09/24 05:15:18;;;;;;;72.03;39.05;;;12.50;99.90;;;;;;3061393;19;20031;-88
2022/09/24 05:16:22;;;;;;;72.18;39.22;;;12.60;99.90;;;;;;3061460;19;20022;-87
2022/09/24 05:17:23;;;;;;;70.35;39.60;;;12.50;99.90;;;;;;3060548;19;20356;-84
2022/09/24 05:18:27;;;;;;;82.90;41.40;;;12.60;99.90;;;;;;3061873;19;20018;-87
2022/09/24 05:19:28;;;;;;;76.85;41.10;;;12.80;99.90;;;;;;3059963;19;20039;-86
2022/09/24 05:20:32;;;;;;;72.47;39.33;;;13.70;99.90;;;;;;3060276;19;20015;-86
2022/09/24 05:21:33;;;;;;;68.10;39.10;;;12.60;99.90;;;;;;3060052;19;20003;-86
2022/09/24 05:22:37;;;;;;;69.47;40.28;;;12.70;99.90;;;;;;3060040;19;20010;-82
2022/09/24 05:23:38;;;;;;;71.85;39.63;;;12.90;99.90;;;;;;3058963;19;20463;-83
2022/09/24 05:24:45;;;;;;;69.05;39.72;;;12.80;99.90;;;;;;3059267;19;20016;-83
2022/09/24 05:27:09;;;;;;;74.05;40.15;;;12.70;99.90;;;;;;3059679;19;20034;-81
2022/09/24 05:28:10;;;;;;;74.97;40.25;;;12.50;99.90;;;;;;3060496;19;20018;-81
2022/09/24 05:29:14;;;;;;;72.20;41.25;;;12.60;99.90;;;;;;3059577;19;20689;-82
2022/09/24 05:30:17;;;;;;;70.53;38.78;;;12.80;99.90;;;;;;3061215;19;20023;-83
2022/09/24 05:31:21;;;;;;;70.50;38.95;;;12.70;99.90;;;;;;3059814;19;20475;-83
2022/09/24 05:32:22;;;;;;;73.72;39.83;;;12.60;99.90;;;;;;3060194;19;20442;-84
2022/09/24 05:33:26;;;;;;;70.43;38.30;;;12.70;99.90;;;;;;3061551;19;20014;-84
2022/09/24 05:34:29;;;;;;;71.22;38.50;;;12.60;99.90;;;;;;3059656;19;20014;-85
2022/09/24 05:35:33;;;;;;;72.18;39.30;;;12.70;99.90;;;;;;3059044;19;20015;-86